Time;durP1;ratioP1;P1;durP2;ratioP2;P2;SDS_P1;SDS_P2;PMS_P1;PMS_P2;Temp;Humidity;BMP_temperature;BMP_pressure;BME280_temperature;BME280_humidity;BME280_pressure;Samples;Min_cycle;Max_cycle;Signal;HPM_P1;HPM_P2
2023/08/13 00:01:25;;;;;;;9.52;3.13;;;;;;;18.18;74.78;101608.03;5054065;28;20040;-59
2023/08/13 00:03:50;;;;;;;12.43;3.03;;;;;;;18.15;74.47;101618.72;5036270;28;20075;-60
2023/08/13 00:06:16;;;;;;;15.00;3.10;;;;;;;18.15;75.33;101615.19;5036145;28;20033;-58
2023/08/13 00:08:42;;;;;;;10.13;3.38;;;;;;;18.17;75.21;101614.28;5053521;28;20478;-60
2023/08/13 00:11:11;;;;;;;9.32;3.05;;;;;;;18.25;74.88;101615.09;5036157;28;20029;-60
2023/08/13 00:13:40;;;;;;;10.18;3.08;;;;;;;18.24;74.86;101607.97;5053671;28;20029;-59
2023/08/13 00:16:09;;;;;;;9.02;3.22;;;;;;;18.18;75.22;101602.66;5053679;28;20029;-60
2023/08/13 00:18:35;;;;;;;13.25;3.35;;;;;;;18.18;74.88;101604.47;5053729;28;20025;-59
2023/08/13 00:21:01;;;;;;;8.20;3.22;;;;;;;18.15;75.45;101607.16;5053695;28;20029;-59
2023/08/13 00:23:27;;;;;;;11.30;3.40;;;;;;;18.10;75.45;101604.50;5036111;28;20025;-60
2023/08/13 00:25:52;;;;;;;10.27;2.80;;;;;;;18.03;75.92;101608.16;5053775;28;20513;-59
2023/08/13 00:28:18;;;;;;;11.40;3.05;;;;;;;18.07;76.78;101611.66;5053451;28;20430;-59
2023/08/13 00:30:43;;;;;;;9.23;3.00;;;;;;;18.02;76.34;101606.38;5053434;28;20478;-59
2023/08/13 00:33:09;;;;;;;8.75;3.15;;;;;;;17.98;76.13;101607.28;5053484;28;20024;-59
2023/08/13 00:35:34;;;;;;;8.48;3.00;;;;;;;17.93;76.70;101603.75;5053488;28;20029;-59
2023/08/13 00:37:59;;;;;;;11.48;2.88;;;;;;;17.87;76.84;101595.81;5053408;28;20466;-59
2023/08/13 00:40:25;;;;;;;10.13;3.45;;;;;;;17.81;77.35;101599.38;5053434;28;20032;-60
2023/08/13 00:42:51;;;;;;;11.77;3.08;;;;;;;17.79;77.37;101598.53;5053441;28;20037;-60
2023/08/13 00:45:16;;;;;;;10.38;3.30;;;;;;;17.80;77.73;101599.41;5053275;28;20070;-59
2023/08/13 00:47:43;;;;;;;11.05;3.25;;;;;;;17.71;78.18;101590.50;5053432;28;20120;-59
2023/08/13 00:50:09;;;;;;;12.43;3.53;;;;;;;17.79;78.25;101594.97;5053463;28;20104;-59
2023/08/13 00:52:34;;;;;;;9.45;3.08;;;;;;;17.69;78.54;101602.13;5035550;28;20025;-59
2023/08/13 00:55:00;;;;;;;8.88;3.17;;;;;;;17.70;78.16;101595.88;5053049;28;20021;-59
2023/08/13 00:57:26;;;;;;;14.32;3.45;;;;;;;17.76;78.28;101588.72;5053242;28;20075;-60
2023/08/13 00:59:51;;;;;;;17.00;4.13;;;;;;;17.74;78.03;101585.19;5053078;28;20116;-59
2023/08/13 01:02:17;;;;;;;11.88;3.40;;;;;;;17.72;77.89;101596.75;5053328;28;20025;-59
2023/08/13 01:04:43;;;;;;;9.75;3.28;;;;;;;17.69;78.58;101581.63;5053011;28;20386;-60
2023/08/13 01:07:20;;;;;;;8.65;3.30;;;;;;;17.79;77.97;101582.47;5052730;28;20049;-59
2023/08/13 01:10:09;;;;;;;10.93;3.22;;;;;;;17.87;77.84;101593.13;5053057;28;20050;-59
2023/08/13 01:12:52;;;;;;;8.98;2.90;;;;;;;17.83;77.60;101602.94;5053462;28;20013;-59
2023/08/13 01:15:20;;;;;;;;;;;;;;;17.99;75.89;101598.38;5053636;28;20025;-59
2023/08/13 01:17:49;;;;;;;13.98;3.08;;;;;;;17.88;77.15;101598.44;5052920;28;19909;-59
2023/08/13 01:20:15;;;;;;;8.70;2.83;;;;;;;17.75;77.70;101604.78;5053050;28;20096;-59
2023/08/13 01:22:47;;;;;;;11.63;3.30;;;;;;;17.71;78.02;101592.31;5053121;28;20029;-59
2023/08/13 01:25:14;;;;;;;10.18;2.90;;;;;;;17.64;78.61;101595.91;5052772;28;20037;-59
2023/08/13 01:27:52;;;;;;;13.68;3.17;;;;;;;17.59;78.98;101595.06;5053054;28;20021;-59
2023/08/13 01:30:55;;;;;;;11.73;3.28;;;;;;;17.56;79.19;101597.72;5052753;28;20539;-58
2023/08/13 01:33:28;;;;;;;12.90;3.13;;;;;;;17.50;79.48;101596.88;5028159;28;20033;-59
2023/08/13 01:36:00;;;;;;;13.68;3.35;;;;;;;17.48;79.82;101605.81;5052844;28;20032;-59
2023/08/13 01:38:26;;;;;;;13.47;3.13;;;;;;;17.41;80.03;101604.06;5052743;28;20071;-58
2023/08/13 01:40:53;;;;;;;11.30;3.00;;;;;;;17.37;80.46;101605.88;5052714;28;20025;-59
2023/08/13 01:43:18;;;;;;;11.85;2.85;;;;;;;17.39;80.45;101605.88;5051869;28;20021;-59
2023/08/13 01:45:44;;;;;;;8.77;2.97;;;;;;;17.35;80.78;101596.09;5052933;28;20029;-59
2023/08/13 01:48:10;;;;;;;9.30;2.80;;;;;;;17.34;80.74;101603.19;5052617;28;20025;-60
2023/08/13 01:50:38;;;;;;;11.13;3.10;;;;;;;17.34;80.55;101610.31;5051591;28;20385;-59
2023/08/13 01:53:03;;;;;;;11.32;2.90;;;;;;;17.33;81.20;101601.44;5052638;28;20032;-59
2023/08/13 01:55:29;;;;;;;8.48;2.83;;;;;;;17.37;81.28;101594.28;5052557;28;20394;-58
2023/08/13 01:57:54;;;;;;;11.88;3.10;;;;;;;17.35;81.25;101604.13;5052893;28;20090;-60
2023/08/13 02:00:20;;;;;;;14.65;3.28;;;;;;;17.36;80.95;101617.44;5052606;28;20390;-59
2023/08/13 02:02:46;;;;;;;13.32;3.22;;;;;;;17.39;81.18;101608.53;5034859;28;20025;-58
2023/08/13 02:05:11;;;;;;;14.77;3.08;;;;;;;17.43;81.67;101611.19;5052569;28;20021;-59
2023/08/13 02:07:37;;;;;;;11.23;2.88;;;;;;;17.38;81.27;101602.28;5052123;28;20550;-59
2023/08/13 02:10:03;;;;;;;12.55;3.15;;;;;;;17.33;81.10;101605.88;5052479;28;20037;-59
2023/08/13 02:12:28;;;;;;;13.65;3.13;;;;;;;17.26;81.83;101607.72;5034623;28;20425;-60
2023/08/13 02:14:54;;;;;;;10.18;3.08;;;;;;;17.21;82.24;101610.38;5052719;28;20025;-60
2023/08/13 02:17:19;;;;;;;11.43;2.72;;;;;;;17.21;82.49;101601.47;5053633;28;20052;-59
2023/08/13 02:19:45;;;;;;;11.10;2.80;;;;;;;17.16;82.66;101596.16;5038125;28;20075;-60
2023/08/13 02:22:10;;;;;;;12.68;3.00;;;;;;;17.15;82.60;101596.19;5055404;28;20482;-59
2023/08/13 02:24:36;;;;;;;11.40;3.00;;;;;;;17.11;82.79;101600.63;5055746;28;20474;-58
2023/08/13 02:27:01;;;;;;;12.32;3.13;;;;;;;17.09;82.95;101599.78;5055981;28;20558;-59
2023/08/13 02:29:27;;;;;;;9.70;2.92;;;;;;;17.09;83.01;101593.56;5055797;28;20420;-59
2023/08/13 02:31:52;;;;;;;9.63;3.28;;;;;;;17.12;82.98;101597.06;5055791;28;20031;-60
2023/08/13 02:34:17;;;;;;;10.90;2.65;;;;;;;17.13;83.09;101595.28;5055686;28;20532;-60
2023/08/13 02:36:43;;;;;;;9.90;2.67;;;;;;;17.13;82.99;101596.19;5055483;28;20040;-59
2023/08/13 02:39:08;;;;;;;7.72;2.83;;;;;;;17.17;83.12;101591.69;5055698;28;20037;-59
2023/08/13 02:41:34;;;;;;;9.68;2.78;;;;;;;17.24;83.01;101585.44;5055840;28;20029;-60
2023/08/13 02:43:59;;;;;;;9.35;3.03;;;;;;;17.11;83.28;101595.31;5055571;28;20475;-59
2023/08/13 02:46:26;;;;;;;11.40;3.13;;;;;;;17.08;83.31;101599.75;5055489;28;20029;-58
2023/08/13 02:48:54;;;;;;;14.10;3.10;;;;;;;17.01;83.53;101590.91;5055374;28;20162;-59
2023/08/13 02:51:20;;;;;;;10.30;3.22;;;;;;;16.97;84.07;101591.81;5055315;28;20028;-60
2023/08/13 02:53:45;;;;;;;10.20;2.58;;;;;;;16.96;84.05;101596.25;5055299;28;20017;-59
2023/08/13 02:56:10;;;;;;;9.98;2.67;;;;;;;17.00;84.50;101586.44;5055143;28;20163;-59
2023/08/13 02:58:36;;;;;;;12.02;2.95;;;;;;;17.02;83.91;101584.66;5055440;28;20029;-60
2023/08/13 03:01:02;;;;;;;11.43;3.08;;;;;;;16.94;84.20;101594.47;5055140;28;20020;-59
2023/08/13 03:03:28;;;;;;;10.02;3.00;;;;;;;16.95;84.79;101585.56;5055132;28;20152;-58
2023/08/13 03:05:53;;;;;;;12.10;3.25;;;;;;;16.92;84.55;101586.47;5055159;28;20511;-59
2023/08/13 03:08:19;;;;;;;15.05;3.13;;;;;;;16.86;84.94;101580.25;5054651;28;20082;-59
2023/08/13 03:10:45;;;;;;;7.32;2.92;;;;;;;16.80;85.57;101577.63;5037191;28;20060;-59
2023/08/13 03:13:10;;;;;;;7.38;2.63;;;;;;;16.75;85.43;101583.88;5037206;28;20025;-60
2023/08/13 03:15:36;;;;;;;7.97;2.60;;;;;;;16.71;85.70;101587.41;5054872;28;20056;-60
2023/08/13 03:18:01;;;;;;;9.77;2.88;;;;;;;16.71;86.34;101591.84;5055030;28;20100;-59
2023/08/13 03:20:27;;;;;;;12.20;2.88;;;;;;;16.71;86.36;101592.75;5054858;28;20075;-58
2023/08/13 03:22:52;;;;;;;12.85;2.95;;;;;;;16.71;86.44;101594.53;5054705;28;20498;-60
2023/08/13 03:25:17;;;;;;;11.15;3.17;;;;;;;16.72;86.13;101585.63;5053505;28;20032;-59
2023/08/13 03:27:43;;;;;;;9.65;2.85;;;;;;;16.71;86.05;101590.06;5054334;28;20483;-60
2023/08/13 03:30:08;;;;;;;14.00;3.17;;;;;;;16.72;86.19;101591.88;5053611;28;20021;-59
2023/08/13 03:32:35;;;;;;;10.27;3.00;;;;;;;16.70;86.25;101585.63;5036844;28;20021;-59
2023/08/13 03:35:00;;;;;;;9.95;2.92;;;;;;;16.71;86.32;101589.19;5054691;28;20564;-60
2023/08/13 03:37:26;;;;;;;11.50;2.70;;;;;;;16.73;86.49;101590.09;5036565;28;20025;-59
2023/08/13 03:39:51;;;;;;;12.88;3.08;;;;;;;16.77;86.23;101587.41;5054476;28;20053;-59
2023/08/13 03:42:16;;;;;;;9.02;2.63;;;;;;;16.71;86.41;101592.75;5054453;28;20021;-60
2023/08/13 03:44:42;;;;;;;8.85;2.85;;;;;;;16.68;86.75;101583.84;5036469;28;20029;-60
2023/08/13 03:47:07;;;;;;;13.25;3.35;;;;;;;16.60;87.04;101583.88;5054508;28;20438;-60
2023/08/13 03:49:33;;;;;;;10.60;3.08;;;;;;;16.51;87.26;101579.44;5054390;28;20443;-60
2023/08/13 03:51:59;;;;;;;10.18;2.90;;;;;;;16.45;87.79;101584.78;5054156;28;20103;-59
2023/08/13 03:54:25;;;;;;;10.13;2.90;;;;;;;16.47;87.93;101585.66;5053112;28;20079;-60
2023/08/13 03:56:50;;;;;;;9.55;2.80;;;;;;;16.51;87.89;101591.88;5054090;28;20487;-58
2023/08/13 03:59:16;;;;;;;15.05;3.00;;;;;;;16.46;88.31;101585.69;5054131;28;20068;-59
2023/08/13 04:01:41;;;;;;;9.13;2.95;;;;;;;16.51;87.81;101592.78;5054128;28;20028;-59
2023/08/13 04:04:06;;;;;;;8.00;2.90;;;;;;;16.50;88.08;101596.34;5054134;28;20131;-58
2023/08/13 04:06:32;;;;;;;12.30;3.17;;;;;;;16.59;87.51;101599.88;5054079;28;20028;-60
2023/08/13 04:08:58;;;;;;;8.52;2.83;;;;;;;16.60;87.33;101594.53;5053532;28;20045;-59
2023/08/13 04:11:23;;;;;;;12.45;3.10;;;;;;;16.68;87.37;101592.75;5053934;28;20032;-60
2023/08/13 04:13:49;;;;;;;13.55;3.00;;;;;;;16.59;87.52;101598.09;5053796;28;20074;-59
2023/08/13 04:16:14;;;;;;;14.23;3.10;;;;;;;16.55;87.69;101601.66;5053655;28;20501;-59
2023/08/13 04:18:39;;;;;;;11.15;2.95;;;;;;;16.55;87.71;101606.13;5053002;28;20432;-58
2023/08/13 04:21:05;;;;;;;10.43;3.17;;;;;;;16.49;88.07;101597.25;5053260;28;20025;-58
2023/08/13 04:23:30;;;;;;;15.88;3.10;;;;;;;16.51;88.01;101599.88;5053065;28;20029;-60
2023/08/13 04:25:56;;;;;;;10.55;2.92;;;;;;;16.61;88.00;101593.63;5035033;28;20025;-59
2023/08/13 04:28:21;;;;;;;9.48;3.00;;;;;;;16.54;87.89;101599.91;5034987;28;20423;-60
2023/08/13 04:30:47;;;;;;;11.10;3.13;;;;;;;16.55;87.88;101595.44;5052991;28;20029;-60
2023/08/13 04:33:12;;;;;;;7.60;2.80;;;;;;;16.51;88.37;101598.09;5035143;28;20035;-59
2023/08/13 04:35:37;;;;;;;10.13;3.00;;;;;;;16.45;88.48;101595.47;5053097;28;20501;-59
2023/08/13 04:38:03;;;;;;;11.18;2.95;;;;;;;16.43;89.05;101597.22;5052919;28;20071;-60
2023/08/13 04:40:29;;;;;;;8.48;3.15;;;;;;;16.42;89.03;101594.56;5052474;28;20227;-59
2023/08/13 04:42:54;;;;;;;7.72;2.88;;;;;;;16.41;89.23;101598.13;5052905;28;20044;-59
2023/08/13 04:45:20;;;;;;;9.93;3.05;;;;;;;16.46;89.24;101599.00;5051595;28;20386;-59
2023/08/13 04:47:45;;;;;;;9.52;3.05;;;;;;;16.55;89.13;101595.44;5052720;28;20061;-59
2023/08/13 04:50:11;;;;;;;9.93;3.28;;;;;;;16.52;89.15;101593.66;5052916;28;20024;-58
2023/08/13 04:52:37;;;;;;;14.18;3.38;;;;;;;16.42;89.65;101598.13;5052882;28;20098;-58
2023/08/13 04:55:03;;;;;;;11.57;3.30;;;;;;;16.40;90.03;101597.25;5052781;28;20417;-59
2023/08/13 04:57:28;;;;;;;8.63;3.20;;;;;;;16.37;90.06;101610.59;5034705;28;20075;-60
2023/08/13 04:59:55;;;;;;;14.88;3.45;;;;;;;16.33;90.76;101597.25;5052807;28;20056;-59
2023/08/13 05:02:20;;;;;;;13.85;3.70;;;;;;;16.32;91.15;101604.38;5052567;28;20360;-59
2023/08/13 05:04:46;;;;;;;8.20;3.30;;;;;;;16.37;91.13;101605.25;5052734;28;20425;-59
2023/08/13 05:07:11;;;;;;;10.38;3.55;;;;;;;16.43;90.97;101599.91;5051983;28;20029;-59
2023/08/13 05:09:36;;;;;;;11.57;3.40;;;;;;;16.48;91.09;101597.22;5052706;28;20051;-58
2023/08/13 05:12:02;;;;;;;10.60;3.22;;;;;;;16.47;90.91;101590.13;5052409;28;20382;-59
2023/08/13 05:14:27;;;;;;;9.55;3.17;;;;;;;16.59;90.87;101598.09;5034537;28;20475;-59
2023/08/13 05:16:54;;;;;;;10.25;3.28;;;;;;;16.70;90.34;101590.06;5052583;28;20083;-59
2023/08/13 05:19:20;;;;;;;16.38;3.38;;;;;;;16.84;89.70;101593.63;5034538;28;20048;-59
2023/08/13 05:21:45;;;;;;;12.13;3.50;;;;;;;16.98;88.86;101591.78;5052398;28;20479;-59
2023/08/13 05:24:11;;;;;;;8.57;3.20;;;;;;;17.13;88.79;101595.28;5034652;28;20033;-59
2023/08/13 05:26:36;;;;;;;9.57;3.33;;;;;;;17.15;87.58;101598.84;5052195;28;20029;-60
2023/08/13 05:29:03;;;;;;;10.32;3.22;;;;;;;17.06;88.13;101601.56;5052112;28;20451;-59
2023/08/13 05:31:29;;;;;;;13.75;3.30;;;;;;;17.00;88.69;101603.38;5052612;28;20079;-59
2023/08/13 05:33:57;;;;;;;12.75;3.53;;;;;;;16.95;88.79;101605.13;5052137;28;20059;-60
2023/08/13 05:36:26;;;;;;;11.68;3.60;;;;;;;16.93;89.27;101609.63;5052365;28;20025;-59
2023/08/13 05:38:51;;;;;;;14.95;3.97;;;;;;;16.93;89.39;101611.41;5050828;28;20033;-60
2023/08/13 05:41:17;;;;;;;10.35;3.25;;;;;;;16.91;89.26;101608.72;5052206;28;20021;-58
2023/08/13 05:43:42;;;;;;;8.77;3.03;;;;;;;16.89;89.55;101604.28;5052169;28;20099;-59
2023/08/13 05:46:07;;;;;;;12.45;3.40;;;;;;;16.85;89.98;101615.88;5034338;28;20048;-59
2023/08/13 05:48:33;;;;;;;12.25;3.33;;;;;;;16.93;89.90;101620.28;5052057;28;20151;-59
2023/08/13 05:50:58;;;;;;;8.55;3.13;;;;;;;17.00;89.62;101618.47;5052128;28;20033;-59
2023/08/13 05:53:24;;;;;;;12.73;3.45;;;;;;;17.13;88.98;101616.66;5055011;28;20342;-59
2023/08/13 05:55:53;;;;;;;13.25;3.65;;;;;;;17.23;88.91;101621.06;5055777;28;20029;-59
2023/08/13 05:58:18;;;;;;;11.50;3.30;;;;;;;17.45;87.95;101617.41;5055997;28;20025;-58
2023/08/13 06:00:44;;;;;;;16.02;3.45;;;;;;;17.62;87.62;101622.66;5055687;28;20040;-58
2023/08/13 06:03:10;;;;;;;13.02;3.30;;;;;;;17.70;87.30;101620.81;5038186;28;20021;-59
2023/08/13 06:05:37;;;;;;;10.05;3.17;;;;;;;17.86;87.10;101616.31;5037862;28;20029;-59
2023/08/13 06:08:03;;;;;;;8.82;3.17;;;;;;;18.04;85.74;101622.41;5055378;28;20118;-59
2023/08/13 06:10:29;;;;;;;9.75;3.17;;;;;;;18.19;84.85;101615.13;5055561;28;20037;-59
2023/08/13 06:12:54;;;;;;;11.82;3.22;;;;;;;18.31;84.56;101623.97;5055525;28;20110;-59
2023/08/13 06:15:20;;;;;;;9.30;3.20;;;;;;;18.34;84.23;101618.59;5055754;28;20032;-59
2023/08/13 06:17:47;;;;;;;12.30;3.25;;;;;;;18.36;83.20;101628.38;5055456;28;20474;-59
2023/08/13 06:20:14;;;;;;;9.57;3.00;;;;;;;18.41;82.86;101620.28;5055802;28;20033;-59
2023/08/13 06:22:40;;;;;;;8.32;3.10;;;;;;;18.48;82.86;101632.72;5055325;28;20055;-59
2023/08/13 06:25:05;;;;;;;12.57;3.65;;;;;;;18.32;82.96;101623.06;5037470;28;20060;-59
2023/08/13 06:27:31;;;;;;;10.52;3.10;;;;;;;18.30;84.41;101631.13;5055158;28;20017;-59
2023/08/13 06:29:56;;;;;;;12.55;3.33;;;;;;;18.25;84.11;101624.91;5055412;28;20029;-60
2023/08/13 06:32:22;;;;;;;11.45;3.10;;;;;;;18.26;84.68;101624.00;5055245;28;20546;-58
2023/08/13 06:34:47;;;;;;;11.45;3.10;;;;;;;18.32;84.54;101617.72;5037491;28;20442;-59
2023/08/13 06:37:12;;;;;;;10.02;3.35;;;;;;;18.30;84.07;101627.56;5055091;28;20082;-59
2023/08/13 06:39:38;;;;;;;12.18;3.38;;;;;;;18.29;84.91;101626.66;5055064;28;20432;-59
2023/08/13 06:42:04;;;;;;;10.40;3.00;;;;;;;18.27;84.76;101615.97;5037105;28;20032;-59
2023/08/13 06:44:30;;;;;;;10.50;3.20;;;;;;;18.26;84.76;101629.38;5055139;28;20383;-61
2023/08/13 06:46:56;;;;;;;12.75;3.25;;;;;;;18.18;85.17;101618.72;5054926;28;20095;-59
2023/08/13 06:49:21;;;;;;;11.65;3.53;;;;;;;18.24;85.10;101617.78;5036901;28;20497;-59
2023/08/13 06:51:47;;;;;;;14.48;3.15;;;;;;;18.38;86.34;101628.38;5055215;28;20029;-59
2023/08/13 06:54:12;;;;;;;11.07;3.10;;;;;;;18.47;84.65;101628.28;5055076;28;20025;-60
2023/08/13 06:56:38;;;;;;;14.60;3.45;;;;;;;18.47;84.16;101631.84;5054609;28;20052;-59
2023/08/13 06:59:04;;;;;;;12.82;3.50;;;;;;;18.43;83.46;101630.09;5054901;28;20509;-59
2023/08/13 07:01:30;;;;;;;10.27;3.13;;;;;;;18.47;85.36;101620.25;5054811;28;20029;-59
2023/08/13 07:03:58;;;;;;;15.85;3.10;;;;;;;18.54;83.54;101621.94;5036789;28;20036;-59
2023/08/13 07:06:25;;;;;;;10.50;3.08;;;;;;;18.65;83.64;101613.84;5054592;28;20036;-59
2023/08/13 07:08:50;;;;;;;10.75;3.28;;;;;;;18.74;83.73;101622.69;5053913;28;20562;-59
2023/08/13 07:11:16;;;;;;;10.32;3.10;;;;;;;18.82;83.91;101619.94;5054371;28;20128;-59
2023/08/13 07:13:41;;;;;;;9.65;2.92;;;;;;;18.86;83.07;101615.44;5054498;28;20049;-60
2023/08/13 07:16:10;;;;;;;10.23;2.90;;;;;;;18.86;82.61;101619.00;5054367;28;20033;-59
2023/08/13 07:18:36;;;;;;;11.50;3.17;;;;;;;18.91;83.25;101610.91;5054396;28;20036;-60
2023/08/13 07:21:04;;;;;;;10.48;3.20;;;;;;;19.03;82.95;101610.75;5054438;28;20386;-59
2023/08/13 07:23:29;;;;;;;10.25;3.03;;;;;;;19.17;83.24;101610.59;5054666;28;20025;-60
2023/08/13 07:25:55;;;;;;;12.77;3.20;;;;;;;19.24;81.64;101605.13;5054103;28;20032;-59
2023/08/13 07:28:20;;;;;;;9.15;2.72;;;;;;;19.42;81.93;101616.53;5054247;28;20532;-59
2023/08/13 07:30:47;;;;;;;10.45;2.90;;;;;;;19.64;80.92;101617.13;5054270;28;20037;-60
2023/08/13 07:33:13;;;;;;;14.20;3.10;;;;;;;19.71;79.68;101616.16;5054819;28;20071;-59
2023/08/13 07:35:39;;;;;;;14.52;2.90;;;;;;;19.67;79.43;101615.31;5054197;28;20037;-59
2023/08/13 07:38:04;;;;;;;10.38;2.75;;;;;;;19.73;80.87;101612.53;5054301;28;20098;-59
2023/08/13 07:40:30;;;;;;;10.18;2.85;;;;;;;19.86;80.34;101617.69;5054237;28;20487;-59
2023/08/13 07:42:59;;;;;;;12.27;3.15;;;;;;;20.04;80.19;101609.34;5052807;28;20033;-60
2023/08/13 07:45:25;;;;;;;10.57;2.92;;;;;;;20.10;78.83;101614.63;5054007;28;20029;-60
2023/08/13 07:47:50;;;;;;;10.52;2.97;;;;;;;20.17;79.34;101608.28;5053945;28;20058;-59
2023/08/13 07:50:16;;;;;;;13.38;3.03;;;;;;;20.26;79.19;101612.59;5054164;28;20479;-60
2023/08/13 07:52:42;;;;;;;15.43;3.50;;;;;;;20.35;77.40;101607.06;5053921;28;20025;-59
2023/08/13 07:55:08;;;;;;;11.40;2.90;;;;;;;20.38;77.20;101606.09;5053725;28;20025;-60
2023/08/13 07:57:33;;;;;;;9.57;2.83;;;;;;;20.46;78.14;101606.84;5053696;28;20036;-60
2023/08/13 07:59:59;;;;;;;10.90;3.05;;;;;;;20.70;77.92;101606.44;5035802;28;20509;-60
2023/08/13 08:02:24;;;;;;;11.88;2.97;;;;;;;20.95;77.93;101614.91;5035775;28;20115;-58
2023/08/13 08:04:50;;;;;;;14.38;3.10;;;;;;;21.20;77.09;101598.28;5053849;28;20057;-60
2023/08/13 08:07:18;;;;;;;11.63;3.05;;;;;;;21.38;74.12;101605.09;5053493;28;20475;-60
2023/08/13 08:09:44;;;;;;;10.35;2.95;;;;;;;21.44;73.94;101597.78;5053343;28;20041;-59
2023/08/13 08:12:09;;;;;;;11.95;2.95;;;;;;;21.64;72.28;101600.03;5053681;28;20039;-59
2023/08/13 08:14:35;;;;;;;12.43;3.10;;;;;;;21.70;70.74;101609.75;5052763;28;20033;-59
2023/08/13 08:17:05;;;;;;;10.77;2.58;;;;;;;21.72;71.71;101603.41;5053469;28;20029;-59
2023/08/13 08:19:32;;;;;;;11.45;2.72;;;;;;;21.79;72.50;101608.63;5053327;28;20028;-59
2023/08/13 08:21:58;;;;;;;13.80;2.80;;;;;;;21.71;69.97;101611.50;5053557;28;20087;-59
2023/08/13 08:24:24;;;;;;;9.90;2.70;;;;;;;21.57;71.00;101605.56;5035535;28;20052;-60
2023/08/13 08:26:50;;;;;;;12.43;2.92;;;;;;;21.74;72.64;101604.25;5053368;28;20048;-60
2023/08/13 08:29:15;;;;;;;12.43;2.92;;;;;;;21.79;71.92;101597.88;5053166;28;20067;-59
2023/08/13 08:31:41;;;;;;;8.80;2.78;;;;;;;21.85;70.67;101604.00;5053209;28;20025;-59
2023/08/13 08:34:06;;;;;;;8.93;2.67;;;;;;;21.85;69.77;101603.13;5053063;28;20067;-60
2023/08/13 08:36:32;;;;;;;10.00;2.72;;;;;;;21.80;69.79;101611.31;5053134;28;20025;-60
2023/08/13 08:38:57;;;;;;;9.00;2.80;;;;;;;21.88;71.06;101603.03;5051851;28;20410;-60
2023/08/13 08:41:27;;;;;;;13.32;3.08;;;;;;;22.04;71.21;101600.88;5052860;28;20056;-60
2023/08/13 08:43:54;;;;;;;13.25;3.20;;;;;;;22.09;70.12;101599.81;5052970;28;20029;-60
2023/08/13 08:46:20;;;;;;;14.48;3.15;;;;;;;22.07;67.76;101604.38;5052829;28;20040;-60
2023/08/13 08:48:46;;;;;;;10.93;2.78;;;;;;;22.05;68.19;101595.44;5052854;28;20071;-59
2023/08/13 08:51:12;;;;;;;8.77;2.55;;;;;;;22.02;67.54;101591.97;5035063;28;20021;-60
2023/08/13 08:53:40;;;;;;;8.82;3.00;;;;;;;22.02;68.59;101590.16;5052724;28;20025;-59
2023/08/13 08:56:06;;;;;;;8.20;2.50;;;;;;;22.13;67.85;101596.16;5052834;28;20108;-60
2023/08/13 08:58:31;;;;;;;11.88;2.88;;;;;;;22.23;69.01;101594.16;5053119;28;20115;-60
2023/08/13 09:01:00;;;;;;;14.43;2.70;;;;;;;22.40;68.85;101601.78;5053029;28;20107;-59
2023/08/13 09:03:29;;;;;;;7.85;2.63;;;;;;;22.49;66.79;101590.75;5052628;28;20033;-60
2023/08/13 09:05:55;;;;;;;8.88;2.88;;;;;;;;;;5052815;28;20037;-60
2023/08/13 09:08:20;;;;;;;7.88;2.78;;;;;;;22.62;65.91;101586.81;5052409;28;20053;-59
2023/08/13 09:10:46;;;;;;;12.48;2.80;;;;;;;22.71;65.61;101581.16;5052838;28;20036;-59
2023/08/13 09:13:11;;;;;;;11.25;3.00;;;;;;;22.85;64.86;101582.56;5034692;28;20083;-59
2023/08/13 09:15:49;;;;;;;9.93;2.70;;;;;;;23.05;65.37;101580.22;5052722;28;20025;-60
2023/08/13 09:18:15;;;;;;;9.80;2.72;;;;;;;23.03;62.37;101571.28;5052924;28;20033;-59
2023/08/13 09:20:45;;;;;;;11.20;3.17;;;;;;;23.09;62.85;101570.25;5034788;28;20419;-60
2023/08/13 09:23:19;;;;;;;12.52;2.88;;;;;;;23.28;62.57;101567.88;5052745;28;20033;-59
2023/08/13 09:25:45;;;;;;;9.70;2.63;;;;;;;23.32;63.55;101562.31;5053050;28;20037;-60
2023/08/13 09:28:13;;;;;;;8.73;2.90;;;;;;;23.55;62.99;101564.28;5056585;28;20036;-60
2023/08/13 09:30:39;;;;;;;10.80;3.20;;;;;;;23.77;63.82;101561.84;5056629;28;20052;-60
2023/08/13 09:33:05;;;;;;;11.27;3.10;;;;;;;23.83;60.05;101556.25;5056530;28;20026;-60
2023/08/13 09:35:30;;;;;;;11.70;2.80;;;;;;;23.88;60.22;101558.78;5056740;28;20029;-59
2023/08/13 09:37:56;;;;;;;7.68;2.75;;;;;;;23.68;60.06;101562.13;5056280;28;20094;-59
2023/08/13 09:40:22;;;;;;;10.52;2.92;;;;;;;23.57;60.04;101559.75;5038467;28;20462;-60
2023/08/13 09:42:52;;;;;;;9.57;2.80;;;;;;;23.57;61.31;101551.66;5056333;28;20394;-60
2023/08/13 09:45:21;;;;;;;9.82;2.97;;;;;;;23.73;59.94;101539.47;5056566;28;20059;-60
2023/08/13 09:47:48;;;;;;;11.30;2.90;;;;;;;23.96;60.11;101543.22;5056195;28;20029;-60
2023/08/13 09:50:17;;;;;;;11.05;2.92;;;;;;;24.12;60.09;101536.38;5056506;28;20082;-59
2023/08/13 09:52:44;;;;;;;11.15;2.97;;;;;;;24.14;56.75;101536.28;5056061;28;20032;-60
2023/08/13 09:55:13;;;;;;;9.93;2.97;;;;;;;24.17;58.95;101533.50;5055975;28;20047;-60
2023/08/13 09:57:41;;;;;;;10.43;3.42;;;;;;;24.45;57.62;101534.34;5056079;28;20509;-60
2023/08/13 10:00:09;;;;;;;10.43;2.80;;;;;;;24.70;57.27;101537.00;5056041;28;20032;-60
2023/08/13 10:02:35;;;;;;;8.18;2.88;;;;;;;24.64;55.22;101539.94;5056348;28;20095;-60
2023/08/13 10:05:03;;;;;;;7.75;2.90;;;;;;;24.66;54.88;101531.75;5056040;28;20056;-60
2023/08/13 10:07:28;;;;;;;8.98;2.90;;;;;;;24.56;55.44;101528.53;5055746;28;20025;-60
2023/08/13 10:09:54;;;;;;;9.52;2.80;;;;;;;24.51;55.75;101529.63;5055671;28;20052;-60
2023/08/13 10:12:21;;;;;;;8.52;2.63;;;;;;;24.49;56.94;101527.84;5055961;28;20552;-60
2023/08/13 10:14:48;;;;;;;10.00;3.05;;;;;;;24.33;54.23;101529.31;5055962;28;20037;-60
2023/08/13 10:17:16;;;;;;;8.68;2.75;;;;;;;24.30;55.87;101525.84;5037825;28;20029;-60
2023/08/13 10:19:47;;;;;;;11.68;2.80;;;;;;;24.10;55.30;101531.94;5055718;28;20028;-60
2023/08/13 10:22:13;;;;;;;9.07;2.80;;;;;;;24.16;56.34;101521.81;5055602;28;20126;-59
2023/08/13 10:24:38;;;;;;;9.65;2.95;;;;;;;24.31;56.62;101523.06;5055836;28;20538;-60
2023/08/13 10:27:04;;;;;;;9.38;2.95;;;;;;;24.66;57.04;101526.34;5055400;28;20036;-59
2023/08/13 10:29:37;;;;;;;8.77;3.00;;;;;;;25.09;56.16;101522.06;5055401;28;20036;-60
2023/08/13 10:32:14;;;;;;;13.70;3.30;;;;;;;25.03;54.24;101527.69;5037826;28;20553;-60
2023/08/13 10:34:43;;;;;;;8.43;2.83;;;;;;;25.05;54.05;101526.66;5055379;28;20036;-60
2023/08/13 10:37:22;;;;;;;10.20;3.00;;;;;;;24.96;54.85;101516.19;5055527;28;20048;-60
2023/08/13 10:39:54;;;;;;;8.77;2.60;;;;;;;24.90;54.21;101521.84;5055010;28;20037;-60
2023/08/13 10:42:29;;;;;;;8.52;3.03;;;;;;;24.70;55.48;101528.00;5037328;28;20150;-58
2023/08/13 10:45:05;;;;;;;9.00;2.85;;;;;;;24.60;55.59;101522.06;5055106;28;20045;-59
2023/08/13 10:47:46;;;;;;;13.25;3.13;;;;;;;24.69;54.85;101526.25;5055387;28;20028;-60
2023/08/13 10:50:21;;;;;;;9.40;2.90;;;;;;;24.74;54.90;101518.84;5055339;28;20033;-60
2023/08/13 10:52:52;;;;;;;8.48;2.47;;;;;;;24.69;54.89;101516.31;5055318;28;20036;-61
2023/08/13 10:55:22;;;;;;;11.30;3.10;;;;;;;24.81;55.67;101508.69;5055121;28;20360;-59
2023/08/13 10:57:54;;;;;;;11.50;3.20;;;;;;;24.94;55.48;101513.56;5054939;28;20025;-60
2023/08/13 11:00:22;;;;;;;8.32;2.67;;;;;;;25.21;54.50;101498.09;5054848;28;20032;-59
2023/08/13 11:02:58;;;;;;;8.10;2.67;;;;;;;25.54;52.54;101508.53;5054862;28;20688;-60
2023/08/13 11:05:24;;;;;;;8.70;2.70;;;;;;;26.00;52.80;101505.75;5054890;28;20033;-60
2023/08/13 11:07:52;;;;;;;10.82;3.15;;;;;;;26.50;51.80;101495.38;5054879;28;20021;-60
2023/08/13 11:10:19;;;;;;;9.05;2.97;;;;;;;26.41;49.86;101503.91;5054544;28;20143;-60
2023/08/13 11:12:48;;;;;;;10.05;2.80;;;;;;;26.09;51.11;101492.69;5054650;28;20037;-60
2023/08/13 11:15:15;;;;;;;10.63;3.00;;;;;;;26.41;50.75;101493.06;5054702;28;20025;-60
2023/08/13 11:17:46;;;;;;;9.80;3.17;;;;;;;26.48;50.10;101507.28;5054599;28;20025;-60
2023/08/13 11:20:14;;;;;;;8.15;2.80;;;;;;;26.01;49.95;101496.66;5054425;28;20040;-60